El Khoms, Libya

9:04 PM CEST on August 23, 2014 (GMT +0200)
Mitiga | Change Station
CLOSE
Current Station
Airport
Location: MITIGA,
Elevation: 36 ft
Nearby Weather Stations

Elev 36 ft 32.89 °N, 13.28 °E | Updated 1 hour ago

Clear
Clear
90 °F
Feels Like 87 °F
N
8
Wind Variable Wind from East

Today
High -- | Low -- °F
--% Chance of Precip.
Yesterday
High -- | Low -- °F
Precip. -- in
6:31 AM 7:38 PM
Waning Crescent, 3% visible
Pressure 29.92 in
Visibility -9999.0 miles
Clouds
Heat Index 87 °F
Dew Point 54 °F
Humidity 29%
Rainfall 0.00 in
Snow Depth Not available.
UV Not available.
Pollen Not available.
Air Quality Not available.
Flu Activity Not available.
METAR HLLM 231750Z 10007KT CAVOK 32/12 Q1013

More Conditions Fewer Conditions

Pressure 29.92 in
Visibility -9999.0 miles
Clouds
Heat Index 87 °F
Dew Point 54 °F
Humidity 29%
Rainfall 0.00 in
Snow Depth Not available.
UV Not available.
Pollen Not available.
Air Quality Not available.
Flu Activity Not available.
METAR HLLM 231750Z 10007KT CAVOK 32/12 Q1013

More Conditions Fewer Conditions

10-Day Weather Forecast

Almanac

Astronomy

Aug. 23, 2014 Rise Set
Actual Time 6:31 AM CEST 7:38 PM CEST
Civil Twilight 6:06 AM CEST 8:04 PM CEST
Nautical Twilight 5:35 AM CEST 8:34 PM CEST
Astronomical Twilight 5:04 AM CEST 9:05 PM CEST
Moon 4:35 AM CEST 6:11 PM CEST
Length of Visible Light 13h 58m
Length of Day
13h 07m
Tomorrow will be 1m 50s shorter.
Waning Crescent, 3% of the Moon is Illuminated
Today
Waning Crescent
Aug 25
New
Sep 2
First Quarter
Sep 8
Full
Sep 15
Last Quarter

Today's Extremes

Country Highs Country Lows

Community

WunderPhotos

Upload Photos

1,746,580 photos uploaded!

WunderBlogs® & News

Nearby

Snow Depth

Not available.

Earthquake Activity

City Distance Mag. Time & Date
No recent earthquake activity has been reported nearby.
Minimum magnitude displayed is 2.5.

Coastal Water Temperatures

Place Temperature
No Stations Reporting

Nearby Weather Stations